createdAt,value
2024-03-16T00:05:00.976Z,57.35
2024-03-16T00:15:04.076Z,57.26
2024-03-16T00:25:07.931Z,56.80
2024-03-16T00:35:11.454Z,56.70
2024-03-16T00:45:14.526Z,56.75
2024-03-16T00:55:18.207Z,56.85
2024-03-16T01:05:21.215Z,56.52
2024-03-16T01:15:24.324Z,56.81
2024-03-16T01:25:27.670Z,57.11
2024-03-16T01:35:30.445Z,57.19
2024-03-16T01:45:33.563Z,58.53
2024-03-16T01:55:36.475Z,59.51
2024-03-16T02:05:39.573Z,59.73
2024-03-16T02:15:42.482Z,60.46
2024-03-16T02:25:45.662Z,60.94
2024-03-16T02:35:48.861Z,61.96
2024-03-16T02:45:51.795Z,62.38
2024-03-16T02:55:55.065Z,62.21
2024-03-16T03:05:57.933Z,62.77
2024-03-16T03:16:00.809Z,62.63
2024-03-16T03:26:03.827Z,62.91
2024-03-16T03:36:07.273Z,63.25
2024-03-16T03:46:14.900Z,61.96
2024-03-16T03:56:17.759Z,60.23
2024-03-16T04:06:20.598Z,57.14
2024-03-16T04:16:23.413Z,54.91
2024-03-16T04:26:26.738Z,53.07
2024-03-16T04:36:29.668Z,51.01
2024-03-16T04:46:34.873Z,50.23
2024-03-16T04:56:38.332Z,48.06
2024-03-16T05:06:42.119Z,46.26
2024-03-16T05:16:45.076Z,45.86
2024-03-16T05:26:48.829Z,44.39
2024-03-16T05:36:51.858Z,43.22
2024-03-16T05:46:54.662Z,44.34
2024-03-16T05:56:57.563Z,44.16
2024-03-16T06:07:00.759Z,43.11
2024-03-16T06:17:03.754Z,42.51
2024-03-16T06:27:07.438Z,42.66
2024-03-16T06:37:10.532Z,43.82
2024-03-16T06:47:13.539Z,44.58
2024-03-16T06:57:16.590Z,44.35
2024-03-16T07:07:19.482Z,44.28
2024-03-16T07:17:24.559Z,45.57
2024-03-16T07:27:27.445Z,47.00
2024-03-16T07:37:30.815Z,47.24
2024-03-16T07:47:33.761Z,48.23
2024-03-16T07:57:36.703Z,47.98
2024-03-16T08:07:40.807Z,49.16
2024-03-16T08:17:43.827Z,49.43
2024-03-16T08:27:46.864Z,49.43
2024-03-16T08:37:50.226Z,49.21
2024-03-16T08:47:53.407Z,47.12
2024-03-16T08:57:56.705Z,46.38
2024-03-16T09:07:59.863Z,46.16
2024-03-16T09:18:04.522Z,45.77
2024-03-16T09:28:09.456Z,46.20
2024-03-16T09:38:13.792Z,46.21
